createdAt,value
2023-05-07T00:00:12.639Z,11.90
2023-05-07T00:02:59.005Z,8.63
2023-05-07T00:05:45.182Z,10.07
2023-05-07T00:08:31.579Z,9.07
2023-05-07T00:11:17.533Z,8.52
2023-05-07T00:14:03.761Z,8.45
2023-05-07T00:16:50.107Z,11.65
2023-05-07T00:19:36.944Z,9.45
2023-05-07T00:22:23.374Z,10.20
2023-05-07T00:25:09.513Z,10.85
2023-05-07T00:30:42.289Z,8.73
2023-05-07T00:33:28.243Z,10.50
2023-05-07T00:36:14.377Z,10.00
2023-05-07T00:39:02.887Z,6.60
2023-05-07T00:41:49.124Z,9.85
2023-05-07T00:44:35.108Z,8.00
2023-05-07T00:47:21.108Z,7.05
2023-05-07T00:50:09.130Z,11.30
2023-05-07T00:52:56.488Z,10.70
2023-05-07T00:55:43.290Z,6.85
2023-05-07T00:58:29.267Z,7.85
2023-05-07T01:01:17.626Z,6.95
2023-05-07T01:04:04.016Z,7.20
2023-05-07T01:06:52.268Z,7.88
2023-05-07T01:09:38.995Z,8.10
2023-05-07T01:15:12.270Z,6.78
2023-05-07T01:17:59.066Z,6.68
2023-05-07T01:20:51.642Z,7.13
2023-05-07T01:23:38.238Z,8.65
2023-05-07T01:26:24.771Z,8.60
2023-05-07T01:29:11.139Z,6.60
2023-05-07T01:32:00.921Z,7.03
2023-05-07T01:34:49.154Z,8.50
2023-05-07T01:37:35.453Z,9.32
2023-05-07T01:43:08.434Z,7.38
2023-05-07T01:45:57.124Z,7.80
2023-05-07T01:48:46.889Z,5.75
2023-05-07T01:51:33.669Z,7.68
2023-05-07T01:54:21.598Z,8.00
2023-05-07T01:57:07.919Z,7.90
2023-05-07T01:59:54.367Z,8.27
2023-05-07T02:02:41.129Z,9.85
2023-05-07T02:05:31.463Z,9.00
2023-05-07T02:08:31.151Z,8.25
2023-05-07T02:11:18.126Z,9.65
2023-05-07T02:14:04.229Z,8.13
2023-05-07T02:16:50.359Z,6.78
2023-05-07T02:19:36.776Z,7.28
2023-05-07T02:22:22.685Z,8.32
2023-05-07T02:25:09.007Z,10.90
2023-05-07T02:27:55.125Z,7.13
2023-05-07T02:30:45.671Z,6.75
2023-05-07T02:33:31.832Z,7.63
2023-05-07T02:36:18.622Z,9.23
2023-05-07T02:39:14.740Z,8.77
2023-05-07T02:42:00.920Z,9.10
2023-05-07T02:44:47.023Z,7.80
2023-05-07T02:47:33.430Z,6.30
2023-05-07T02:50:21.508Z,7.00
2023-05-07T02:53:07.718Z,9.77
2023-05-07T02:55:58.410Z,6.57
2023-05-07T02:58:44.685Z,7.60
2023-05-07T03:01:31.844Z,7.30
2023-05-07T03:04:23.415Z,7.38
2023-05-07T03:07:09.782Z,6.80
2023-05-07T03:09:55.796Z,6.57
2023-05-07T03:12:41.862Z,7.28
2023-05-07T03:15:30.793Z,5.95
2023-05-07T03:18:16.744Z,7.03
2023-05-07T03:21:03.519Z,7.55
2023-05-07T03:23:50.112Z,6.45
2023-05-07T03:26:36.105Z,6.57
2023-05-07T03:29:22.699Z,7.32
2023-05-07T03:32:08.602Z,7.22
2023-05-07T03:34:55.171Z,6.32
2023-05-07T03:37:42.156Z,7.78
2023-05-07T03:40:29.844Z,9.35
2023-05-07T03:43:16.396Z,5.30
2023-05-07T03:46:07.577Z,6.65
2023-05-07T03:48:53.675Z,9.88
2023-05-07T03:51:40.565Z,7.80
2023-05-07T03:54:28.067Z,8.48
2023-05-07T03:57:14.071Z,6.13
2023-05-07T04:00:00.534Z,8.05
2023-05-07T04:02:46.697Z,5.55
2023-05-07T04:05:35.717Z,7.50
2023-05-07T04:08:23.210Z,6.18
2023-05-07T04:11:13.518Z,6.95
2023-05-07T04:13:59.643Z,7.28
2023-05-07T04:16:45.891Z,6.50
2023-05-07T04:19:33.928Z,6.30
2023-05-07T04:22:20.698Z,8.85
2023-05-07T04:27:56.664Z,6.47
2023-05-07T04:30:46.603Z,6.63
2023-05-07T04:33:33.949Z,5.68
2023-05-07T04:36:20.219Z,5.78
2023-05-07T04:39:17.136Z,6.15
2023-05-07T04:42:09.878Z,6.47
2023-05-07T04:44:56.553Z,8.07
2023-05-07T04:47:43.814Z,11.88
2023-05-07T04:50:31.553Z,6.68
2023-05-07T04:53:21.386Z,7.10
2023-05-07T04:56:09.134Z,6.20
2023-05-07T04:59:00.217Z,7.03
2023-05-07T05:01:48.124Z,6.65
2023-05-07T05:04:34.366Z,7.35
2023-05-07T05:07:20.268Z,5.68
2023-05-07T05:10:07.212Z,7.93
2023-05-07T05:12:57.287Z,7.00
2023-05-07T05:15:44.191Z,5.75
2023-05-07T05:18:30.232Z,6.95
2023-05-07T05:21:16.204Z,6.63
2023-05-07T05:24:04.620Z,8.20
2023-05-07T05:26:51.498Z,7.05
2023-05-07T05:29:37.621Z,6.38
2023-05-07T05:32:23.785Z,6.45
2023-05-07T05:35:11.466Z,7.15
2023-05-07T05:37:58.599Z,7.10
2023-05-07T05:40:44.502Z,7.15
2023-05-07T05:43:31.006Z,6.88
2023-05-07T05:46:18.410Z,6.68
2023-05-07T05:49:04.885Z,6.47
2023-05-07T05:51:51.519Z,8.05
2023-05-07T05:54:39.438Z,6.80
2023-05-07T05:57:26.689Z,7.13
2023-05-07T06:00:15.515Z,6.93
2023-05-07T06:03:07.881Z,6.40
2023-05-07T06:05:55.539Z,7.53
2023-05-07T06:08:43.598Z,7.18
2023-05-07T06:11:33.212Z,5.85
2023-05-07T06:14:19.650Z,7.63
2023-05-07T06:19:53.107Z,6.40
2023-05-07T06:22:40.361Z,6.22
2023-05-07T06:25:27.813Z,5.80
2023-05-07T06:28:13.730Z,7.72
2023-05-07T06:31:21.855Z,8.25
2023-05-07T06:34:19.151Z,8.27
2023-05-07T06:37:05.770Z,6.43
2023-05-07T06:40:12.938Z,5.43
2023-05-07T06:43:00.272Z,7.28
2023-05-07T06:46:09.489Z,5.13
2023-05-07T06:48:55.915Z,6.80
2023-05-07T06:51:42.654Z,4.63
2023-05-07T06:54:28.632Z,5.72
2023-05-07T06:57:15.069Z,5.93
2023-05-07T07:00:02.007Z,6.82
2023-05-07T07:02:49.986Z,5.03
2023-05-07T07:05:38.729Z,5.47
2023-05-07T07:08:24.877Z,5.80
2023-05-07T07:11:11.994Z,4.63
2023-05-07T07:13:59.856Z,4.20
2023-05-07T07:16:47.850Z,4.93
2023-05-07T07:19:35.485Z,4.43
2023-05-07T07:22:23.166Z,4.03
2023-05-07T07:27:58.184Z,4.78
2023-05-07T07:30:45.826Z,4.93
2023-05-07T07:33:32.467Z,6.03
2023-05-07T07:36:18.582Z,5.28
2023-05-07T07:39:05.266Z,5.53
2023-05-07T07:41:51.403Z,5.20
2023-05-07T07:44:38.291Z,5.30
2023-05-07T07:47:27.905Z,4.78
2023-05-07T07:53:11.564Z,6.07
2023-05-07T07:55:59.485Z,4.07
2023-05-07T07:58:48.769Z,5.40
2023-05-07T08:01:35.452Z,6.40
2023-05-07T08:04:22.829Z,6.38
2023-05-07T08:07:08.876Z,5.55
2023-05-07T08:09:58.327Z,5.07
2023-05-07T08:12:46.172Z,4.85
2023-05-07T08:15:32.855Z,5.57
2023-05-07T08:18:19.462Z,5.30
2023-05-07T08:21:05.993Z,4.63
2023-05-07T08:23:52.701Z,5.32
2023-05-07T08:26:40.309Z,3.90
2023-05-07T08:29:27.565Z,4.22
2023-05-07T08:32:13.828Z,4.63
2023-05-07T08:34:59.778Z,4.53
2023-05-07T08:37:46.045Z,5.22
2023-05-07T08:40:41.824Z,5.22
2023-05-07T08:43:36.053Z,6.13
2023-05-07T08:46:23.769Z,4.50
2023-05-07T08:49:14.547Z,4.68
2023-05-07T08:52:02.459Z,4.97
2023-05-07T08:54:48.844Z,4.55
2023-05-07T08:57:35.609Z,5.78
2023-05-07T09:00:22.857Z,4.60
2023-05-07T09:03:15.434Z,5.20
2023-05-07T09:06:05.886Z,5.00
2023-05-07T09:08:53.503Z,5.25
2023-05-07T09:11:40.928Z,3.92
2023-05-07T09:14:27.492Z,5.75
2023-05-07T09:17:17.130Z,5.07
2023-05-07T09:20:06.149Z,6.20
2023-05-07T09:22:56.086Z,5.30
2023-05-07T09:25:43.653Z,6.72
2023-05-07T09:28:40.921Z,4.25
2023-05-07T09:31:27.576Z,5.10
2023-05-07T09:34:15.112Z,5.10
2023-05-07T09:37:05.454Z,5.90
2023-05-07T09:39:52.690Z,4.75
2023-05-07T09:42:42.302Z,5.65
2023-05-07T09:45:29.697Z,4.75
2023-05-07T09:48:20.056Z,5.47
2023-05-07T09:51:23.173Z,4.45
2023-05-07T09:54:09.820Z,4.57
2023-05-07T09:56:59.847Z,5.25
2023-05-07T09:59:52.572Z,4.97
2023-05-07T10:02:47.322Z,4.50
2023-05-07T10:05:34.192Z,3.70
2023-05-07T10:08:21.806Z,3.47
2023-05-07T10:11:10.955Z,3.83
2023-05-07T10:13:57.379Z,4.22
2023-05-07T10:16:44.184Z,3.25
2023-05-07T10:19:37.524Z,3.60
2023-05-07T10:22:27.553Z,3.45
2023-05-07T10:25:29.501Z,5.85
2023-05-07T10:28:18.411Z,5.25
2023-05-07T10:31:16.112Z,3.47
2023-05-07T10:34:14.559Z,3.60
2023-05-07T10:37:01.560Z,3.92
2023-05-07T10:39:48.861Z,4.95
2023-05-07T10:42:34.840Z,4.55
2023-05-07T10:45:21.768Z,3.88
2023-05-07T10:51:24.491Z,4.38
2023-05-07T10:54:22.209Z,4.88
2023-05-07T10:57:36.903Z,5.05
2023-05-07T11:03:29.288Z,4.22
2023-05-07T11:06:20.198Z,5.63
2023-05-07T11:09:54.858Z,3.80
2023-05-07T11:12:51.886Z,3.33
2023-05-07T11:15:49.640Z,4.60
2023-05-07T11:18:51.273Z,3.58
2023-05-07T11:21:43.692Z,4.32
2023-05-07T11:24:43.451Z,5.47
2023-05-07T11:27:31.746Z,4.30
2023-05-07T11:30:21.060Z,3.38
2023-05-07T11:33:08.191Z,3.78
2023-05-07T11:35:55.296Z,3.28
2023-05-07T11:38:43.956Z,3.60
2023-05-07T11:44:23.813Z,4.97
2023-05-07T11:47:11.595Z,3.45
2023-05-07T11:49:57.786Z,3.03
2023-05-07T11:55:37.365Z,4.10
2023-05-07T11:58:24.921Z,2.80
2023-05-07T12:01:12.355Z,3.08
2023-05-07T12:03:58.537Z,3.03
2023-05-07T12:06:45.075Z,3.35
2023-05-07T12:09:33.323Z,3.28
2023-05-07T12:12:19.620Z,4.47
2023-05-07T12:17:53.535Z,3.90
2023-05-07T12:20:40.446Z,3.28
2023-05-07T12:23:27.390Z,3.00
2023-05-07T12:26:13.514Z,5.40
2023-05-07T12:31:45.846Z,2.75
2023-05-07T12:34:32.783Z,3.00
2023-05-07T12:37:24.850Z,3.65
2023-05-07T12:40:12.654Z,2.88
2023-05-07T12:43:00.921Z,2.85
2023-05-07T12:45:51.672Z,2.70
2023-05-07T12:48:38.985Z,3.20
2023-05-07T12:51:25.453Z,3.90
2023-05-07T12:54:11.852Z,4.05
2023-05-07T12:57:04.368Z,3.75
2023-05-07T12:59:50.314Z,2.80
2023-05-07T13:05:26.406Z,2.90
2023-05-07T13:08:12.343Z,3.85
2023-05-07T13:11:06.385Z,3.33
2023-05-07T13:13:52.555Z,3.17
2023-05-07T13:16:38.691Z,3.40
2023-05-07T13:19:25.048Z,4.90
2023-05-07T13:22:12.347Z,3.78
2023-05-07T13:24:58.790Z,4.15
2023-05-07T13:27:45.777Z,3.75
2023-05-07T13:30:32.707Z,3.88
2023-05-07T13:33:19.190Z,4.35
2023-05-07T13:36:06.618Z,4.22
2023-05-07T13:38:52.895Z,3.78
2023-05-07T13:41:39.297Z,3.08
2023-05-07T13:47:11.564Z,4.10
2023-05-07T13:49:57.508Z,5.13
2023-05-07T13:52:47.196Z,4.28
2023-05-07T13:55:33.341Z,5.45
2023-05-07T13:58:19.544Z,3.58
2023-05-07T14:01:06.130Z,4.30
2023-05-07T14:03:52.595Z,3.90
2023-05-07T14:06:40.051Z,4.28
2023-05-07T14:09:26.888Z,3.47
2023-05-07T14:12:12.712Z,4.20
2023-05-07T14:14:58.634Z,4.30
2023-05-07T14:17:45.360Z,4.35
2023-05-07T14:20:32.099Z,4.28
2023-05-07T14:23:23.091Z,3.55
2023-05-07T14:26:09.280Z,4.30
2023-05-07T14:28:58.325Z,4.68
2023-05-07T14:31:44.488Z,4.78
2023-05-07T14:34:31.168Z,4.28
2023-05-07T14:37:17.373Z,4.28
2023-05-07T14:40:03.700Z,4.28
2023-05-07T14:42:50.421Z,4.30
2023-05-07T14:45:36.531Z,2.92
2023-05-07T14:48:22.943Z,3.10
2023-05-07T14:51:08.916Z,3.40
2023-05-07T14:53:55.641Z,2.75
2023-05-07T14:56:42.507Z,2.80
2023-05-07T14:59:29.136Z,3.08
2023-05-07T15:05:01.212Z,3.90
2023-05-07T15:07:47.709Z,3.40
2023-05-07T15:10:41.717Z,4.32
2023-05-07T15:13:27.784Z,2.97
2023-05-07T15:16:14.326Z,5.20
2023-05-07T15:19:01.767Z,6.70
2023-05-07T15:24:33.875Z,3.05
2023-05-07T15:27:20.099Z,4.43
2023-05-07T15:30:06.833Z,4.85
2023-05-07T15:32:53.461Z,3.63
2023-05-07T15:35:40.112Z,5.13
2023-05-07T15:38:27.568Z,2.80
2023-05-07T15:41:13.824Z,3.60
2023-05-07T15:43:59.798Z,2.85
2023-05-07T15:46:45.852Z,3.20
2023-05-07T15:49:33.108Z,3.05
2023-05-07T15:52:19.575Z,2.97
2023-05-07T15:55:07.360Z,7.15
2023-05-07T15:57:55.121Z,2.88
2023-05-07T16:00:42.188Z,3.78
2023-05-07T16:03:29.315Z,3.20
2023-05-07T16:06:15.793Z,2.80
2023-05-07T16:09:02.011Z,4.13
2023-05-07T16:11:49.878Z,2.97
2023-05-07T16:14:36.267Z,3.33
2023-05-07T16:20:09.720Z,3.10
2023-05-07T16:22:56.292Z,3.63
2023-05-07T16:25:42.307Z,2.80
2023-05-07T16:31:14.872Z,3.72
2023-05-07T16:34:01.199Z,3.22
2023-05-07T16:36:47.561Z,3.25
2023-05-07T16:42:19.884Z,4.65
2023-05-07T16:45:06.745Z,2.88
2023-05-07T16:47:53.239Z,3.00
2023-05-07T16:50:39.641Z,3.88
2023-05-07T16:53:25.658Z,3.22
2023-05-07T16:56:11.730Z,2.90
2023-05-07T16:58:57.760Z,3.40
2023-05-07T17:01:43.741Z,3.13
2023-05-07T17:04:29.974Z,3.30
2023-05-07T17:07:16.934Z,3.47
2023-05-07T17:10:03.667Z,3.45
2023-05-07T17:12:50.282Z,3.33
2023-05-07T17:15:36.325Z,3.15
2023-05-07T17:18:22.234Z,5.07
2023-05-07T17:21:08.226Z,3.55
2023-05-07T17:23:54.086Z,3.47
2023-05-07T17:26:42.821Z,4.20
2023-05-07T17:29:30.784Z,2.85
2023-05-07T17:32:17.166Z,4.55
2023-05-07T17:35:03.557Z,4.35
2023-05-07T17:37:52.716Z,4.18
2023-05-07T17:40:38.961Z,3.40
2023-05-07T17:46:11.221Z,3.13
2023-05-07T17:48:57.962Z,2.85
2023-05-07T17:51:53.912Z,3.05
2023-05-07T17:54:41.459Z,2.83
2023-05-07T18:00:15.504Z,6.30
2023-05-07T18:03:02.196Z,2.85
2023-05-07T18:05:48.326Z,3.35
2023-05-07T18:08:35.062Z,5.22
2023-05-07T18:11:22.654Z,3.00
2023-05-07T18:14:08.551Z,3.15
2023-05-07T18:16:54.633Z,3.40
2023-05-07T18:22:28.559Z,2.65
2023-05-07T18:25:14.981Z,3.35
2023-05-07T18:28:01.343Z,4.50
2023-05-07T18:30:47.801Z,3.20
2023-05-07T18:36:19.679Z,3.67
2023-05-07T18:39:06.514Z,4.10
2023-05-07T18:44:39.403Z,3.80
2023-05-07T18:47:25.445Z,3.00
2023-05-07T18:50:12.250Z,4.43
2023-05-07T18:52:58.708Z,3.33
2023-05-07T18:55:48.900Z,3.20
2023-05-07T18:58:35.720Z,4.28
2023-05-07T19:01:21.975Z,3.25
2023-05-07T19:04:07.926Z,3.47
2023-05-07T19:06:54.496Z,4.63
2023-05-07T19:09:47.953Z,4.07
2023-05-07T19:12:40.908Z,3.67
2023-05-07T19:15:27.158Z,4.53
2023-05-07T19:18:13.308Z,4.00
2023-05-07T19:20:59.265Z,5.25
2023-05-07T19:26:32.702Z,6.22
2023-05-07T19:29:18.873Z,4.75
2023-05-07T19:34:51.710Z,3.67
2023-05-07T19:37:37.935Z,5.30
2023-05-07T19:40:24.232Z,4.20
2023-05-07T19:43:10.071Z,5.35
2023-05-07T19:45:56.200Z,5.47
2023-05-07T19:48:42.403Z,6.97
2023-05-07T19:51:32.301Z,6.22
2023-05-07T19:54:18.413Z,5.25
2023-05-07T19:57:04.598Z,4.95
2023-05-07T19:59:50.603Z,4.88
2023-05-07T20:02:36.933Z,4.30
2023-05-07T20:05:24.008Z,4.78
2023-05-07T20:08:09.803Z,5.25
2023-05-07T20:10:57.963Z,4.50
2023-05-07T20:13:44.082Z,4.60
2023-05-07T20:16:30.006Z,6.65
2023-05-07T20:19:16.407Z,6.28
2023-05-07T20:22:03.063Z,4.53
2023-05-07T20:27:35.514Z,7.05
2023-05-07T20:30:24.106Z,4.40
2023-05-07T20:33:10.295Z,7.60
2023-05-07T20:35:58.675Z,6.07
2023-05-07T20:38:45.155Z,6.25
2023-05-07T20:41:31.381Z,6.03
2023-05-07T20:44:18.981Z,5.13
2023-05-07T20:47:05.506Z,5.32
2023-05-07T20:49:53.123Z,7.40
2023-05-07T20:52:39.751Z,6.63
2023-05-07T20:55:26.005Z,6.82
2023-05-07T20:58:11.900Z,5.22
2023-05-07T21:00:58.281Z,6.78
2023-05-07T21:03:44.167Z,5.70
2023-05-07T21:06:30.259Z,7.07
2023-05-07T21:09:16.463Z,5.70
2023-05-07T21:14:49.499Z,6.45
2023-05-07T21:20:22.030Z,5.40
2023-05-07T21:23:08.226Z,5.60
2023-05-07T21:25:54.748Z,8.13
2023-05-07T21:28:40.737Z,4.93
2023-05-07T21:31:29.417Z,7.63
2023-05-07T21:34:15.609Z,5.70
2023-05-07T21:39:48.219Z,8.18
2023-05-07T21:42:34.371Z,4.78
2023-05-07T21:45:20.704Z,9.57
2023-05-07T21:48:07.686Z,6.47
2023-05-07T21:51:08.082Z,6.43
2023-05-07T21:53:55.894Z,6.18
2023-05-07T21:56:42.084Z,5.43
2023-05-07T21:59:27.936Z,6.07
2023-05-07T22:02:14.031Z,6.60
2023-05-07T22:05:00.014Z,5.63
2023-05-07T22:07:45.980Z,6.43
2023-05-07T22:10:31.850Z,5.68
2023-05-07T22:13:18.002Z,5.63
2023-05-07T22:16:04.360Z,5.97
2023-05-07T22:18:50.630Z,6.55
2023-05-07T22:24:23.009Z,5.40
2023-05-07T22:29:56.249Z,8.10
2023-05-07T22:32:43.216Z,8.23
2023-05-07T22:35:29.254Z,8.77
2023-05-07T22:38:15.439Z,6.22
2023-05-07T22:41:01.838Z,8.57
2023-05-07T22:43:48.270Z,7.03
2023-05-07T22:49:20.327Z,6.72
2023-05-07T22:52:06.340Z,7.88
2023-05-07T22:54:52.203Z,7.18
2023-05-07T22:57:38.161Z,7.45
2023-05-07T23:00:24.571Z,7.97
2023-05-07T23:03:10.873Z,7.82
2023-05-07T23:08:43.313Z,8.25
2023-05-07T23:11:29.288Z,7.18
2023-05-07T23:14:15.846Z,7.50
2023-05-07T23:17:02.051Z,7.72
2023-05-07T23:22:34.399Z,7.60
2023-05-07T23:25:20.378Z,7.05
2023-05-07T23:28:06.871Z,7.75
2023-05-07T23:33:39.810Z,7.78
2023-05-07T23:36:26.185Z,8.43
2023-05-07T23:39:12.497Z,6.80
2023-05-07T23:41:58.899Z,8.45
2023-05-07T23:44:45.352Z,9.27
2023-05-07T23:50:17.364Z,6.43
2023-05-07T23:53:04.144Z,8.20
2023-05-07T23:55:50.744Z,8.35
